createdAt,value
2023-10-14T00:02:22.434Z,3.90
2023-10-14T00:04:54.641Z,3.83
2023-10-14T00:07:26.694Z,3.53
2023-10-14T00:09:58.903Z,4.72
2023-10-14T00:12:29.782Z,4.10
2023-10-14T00:15:05.149Z,4.03
2023-10-14T00:17:37.611Z,3.65
2023-10-14T00:20:06.919Z,3.30
2023-10-14T00:22:39.967Z,4.20
2023-10-14T00:25:20.006Z,4.07
2023-10-14T00:27:48.504Z,2.87
2023-10-14T00:30:20.770Z,3.83
2023-10-14T00:32:49.179Z,4.18
2023-10-14T00:35:19.773Z,3.62
2023-10-14T00:37:48.240Z,3.78
2023-10-14T00:40:23.901Z,3.37
2023-10-14T00:42:53.116Z,3.75
2023-10-14T00:45:22.038Z,3.28
2023-10-14T00:47:50.654Z,3.95
2023-10-14T00:50:25.565Z,4.43
2023-10-14T00:55:50.425Z,3.30
2023-10-14T00:58:38.874Z,3.55
2023-10-14T01:01:08.502Z,4.18
2023-10-14T01:03:37.448Z,3.15
2023-10-14T01:06:26.211Z,4.03
2023-10-14T01:08:55.073Z,3.92
2023-10-14T01:11:26.280Z,3.92
2023-10-14T01:14:01.971Z,3.97
2023-10-14T01:16:38.266Z,3.40
2023-10-14T01:19:07.488Z,4.05
2023-10-14T01:21:41.809Z,3.42
2023-10-14T01:24:17.409Z,3.95
2023-10-14T01:26:53.453Z,3.40
2023-10-14T01:29:26.126Z,4.00
2023-10-14T01:32:10.946Z,3.53
2023-10-14T01:37:20.646Z,3.90
2023-10-14T01:39:58.228Z,2.92
2023-10-14T01:42:30.743Z,3.53
2023-10-14T01:45:01.807Z,4.37
2023-10-14T01:47:33.602Z,4.00
2023-10-14T01:50:02.969Z,3.33
2023-10-14T01:52:33.144Z,3.25
2023-10-14T01:55:01.544Z,3.72
2023-10-14T01:57:30.590Z,3.65
2023-10-14T01:59:58.707Z,3.65
2023-10-14T02:02:28.683Z,3.62
2023-10-14T02:04:58.410Z,3.83
2023-10-14T02:07:27.608Z,3.90
2023-10-14T02:09:57.076Z,3.62
2023-10-14T02:12:25.899Z,3.72
2023-10-14T02:15:01.098Z,3.75
2023-10-14T02:17:31.430Z,3.58
2023-10-14T02:20:09.464Z,4.03
2023-10-14T02:22:39.660Z,4.30
2023-10-14T02:25:08.333Z,3.20
2023-10-14T02:27:36.591Z,3.12
2023-10-14T02:30:07.252Z,4.12
2023-10-14T02:32:35.990Z,4.40
2023-10-14T02:35:05.002Z,4.05
2023-10-14T02:37:33.417Z,4.50
2023-10-14T02:40:02.679Z,4.12
2023-10-14T02:42:31.087Z,3.78
2023-10-14T02:45:00.912Z,4.03
2023-10-14T02:47:29.504Z,4.12
2023-10-14T02:50:06.933Z,4.25
2023-10-14T02:52:40.320Z,4.07
2023-10-14T02:55:23.384Z,3.85
2023-10-14T02:57:52.158Z,3.60
2023-10-14T03:00:32.038Z,3.65
2023-10-14T03:03:04.185Z,3.80
2023-10-14T03:05:36.137Z,3.70
2023-10-14T03:08:10.317Z,4.50
2023-10-14T03:10:41.951Z,4.07
2023-10-14T03:13:13.485Z,3.30
2023-10-14T03:15:54.074Z,4.62
2023-10-14T03:18:31.989Z,3.45
2023-10-14T03:21:01.567Z,3.80
2023-10-14T03:23:33.731Z,3.78
2023-10-14T03:26:15.290Z,3.53
2023-10-14T03:28:47.930Z,3.70
2023-10-14T03:31:19.153Z,3.55
2023-10-14T03:33:48.005Z,3.80
2023-10-14T03:36:21.764Z,4.62
2023-10-14T03:38:57.507Z,3.78
2023-10-14T03:41:31.037Z,4.72
2023-10-14T03:43:59.873Z,3.22
2023-10-14T03:46:36.763Z,3.87
2023-10-14T03:49:22.559Z,4.62
2023-10-14T03:51:56.420Z,4.07
2023-10-14T03:54:27.276Z,3.80
2023-10-14T03:56:58.635Z,4.62
2023-10-14T03:59:28.153Z,3.75
2023-10-14T04:02:00.591Z,4.55
2023-10-14T04:04:31.045Z,3.80
2023-10-14T04:07:02.826Z,3.87
2023-10-14T04:09:45.473Z,3.80
2023-10-14T04:12:31.986Z,4.97
2023-10-14T04:15:13.981Z,4.40
2023-10-14T04:17:48.646Z,4.20
2023-10-14T04:20:37.516Z,4.93
2023-10-14T04:23:07.215Z,3.75
2023-10-14T04:25:44.002Z,4.75
2023-10-14T04:28:15.054Z,3.87
2023-10-14T04:30:43.967Z,4.70
2023-10-14T04:33:35.142Z,4.10
2023-10-14T04:36:20.501Z,4.43
2023-10-14T04:39:05.716Z,4.28
2023-10-14T04:41:47.026Z,4.40
2023-10-14T04:44:15.232Z,4.78
2023-10-14T04:46:56.088Z,4.12
2023-10-14T04:49:36.476Z,4.62
2023-10-14T04:52:07.103Z,4.68
2023-10-14T04:54:35.708Z,4.60
2023-10-14T04:57:21.165Z,4.87
2023-10-14T04:59:54.596Z,4.85
2023-10-14T05:02:23.440Z,4.72
2023-10-14T05:04:52.888Z,4.00
2023-10-14T05:07:21.041Z,4.30
2023-10-14T05:09:57.849Z,4.65
2023-10-14T05:12:27.110Z,4.65
2023-10-14T05:14:56.828Z,4.43
2023-10-14T05:17:28.858Z,4.53
2023-10-14T05:19:59.539Z,4.22
2023-10-14T05:22:39.065Z,4.43
2023-10-14T05:25:16.932Z,4.37
2023-10-14T05:27:56.404Z,3.90
2023-10-14T05:30:34.868Z,4.00
2023-10-14T05:33:09.340Z,4.53
2023-10-14T05:35:46.838Z,4.30
2023-10-14T05:38:15.774Z,4.55
2023-10-14T05:40:44.788Z,4.05
2023-10-14T05:43:14.248Z,4.18
2023-10-14T05:45:42.806Z,3.75
2023-10-14T05:48:11.814Z,4.45
2023-10-14T05:50:41.633Z,4.18
2023-10-14T05:53:10.830Z,4.20
2023-10-14T05:55:41.088Z,4.78
2023-10-14T05:58:09.570Z,4.53
2023-10-14T06:00:40.111Z,4.15
2023-10-14T06:03:13.079Z,4.05
2023-10-14T06:05:41.772Z,4.80
2023-10-14T06:08:18.389Z,4.32
2023-10-14T06:10:47.981Z,3.67
2023-10-14T06:13:16.821Z,3.72
2023-10-14T06:15:45.619Z,4.75
2023-10-14T06:18:17.047Z,3.87
2023-10-14T06:20:48.767Z,4.10
2023-10-14T06:23:16.854Z,3.92
2023-10-14T06:25:47.147Z,4.32
2023-10-14T06:28:17.673Z,4.80
2023-10-14T06:30:46.448Z,5.22
2023-10-14T06:33:14.818Z,6.07
2023-10-14T06:35:47.310Z,5.05
2023-10-14T06:38:19.571Z,4.82
2023-10-14T06:41:02.385Z,4.55
2023-10-14T06:43:34.973Z,5.57
2023-10-14T06:46:06.207Z,4.65
2023-10-14T06:48:35.847Z,4.30
2023-10-14T06:51:04.017Z,4.60
2023-10-14T06:53:32.909Z,4.10
2023-10-14T06:56:02.889Z,4.50
2023-10-14T06:58:33.519Z,4.97
2023-10-14T07:01:04.381Z,4.62
2023-10-14T07:03:34.774Z,4.87
2023-10-14T07:06:06.426Z,5.12
2023-10-14T07:08:34.821Z,5.57
2023-10-14T07:11:03.653Z,4.97
2023-10-14T07:13:32.106Z,4.45
2023-10-14T07:16:07.019Z,4.40
2023-10-14T07:18:39.543Z,4.20
2023-10-14T07:21:14.288Z,4.97
2023-10-14T07:23:43.119Z,4.60
2023-10-14T07:26:13.533Z,4.18
2023-10-14T07:28:53.489Z,4.90
2023-10-14T07:31:24.833Z,6.07
2023-10-14T07:33:54.442Z,5.00
2023-10-14T07:36:22.949Z,4.57
2023-10-14T07:38:51.240Z,5.10
2023-10-14T07:41:23.375Z,4.93
2023-10-14T07:43:52.201Z,4.62
2023-10-14T07:46:20.500Z,4.50
2023-10-14T07:48:48.769Z,5.22
2023-10-14T07:51:29.246Z,5.60
2023-10-14T07:53:58.655Z,4.87
2023-10-14T07:56:28.219Z,5.15
2023-10-14T07:58:56.955Z,5.50
2023-10-14T08:01:26.718Z,5.53
2023-10-14T08:03:58.583Z,5.47
2023-10-14T08:06:28.058Z,5.20
2023-10-14T08:08:56.765Z,5.60
2023-10-14T08:11:25.077Z,5.75
2023-10-14T08:13:53.617Z,6.28
2023-10-14T08:16:23.619Z,5.72
2023-10-14T08:18:55.315Z,6.60
2023-10-14T08:21:24.263Z,5.45
2023-10-14T08:23:52.588Z,5.95
2023-10-14T08:26:22.326Z,6.50
2023-10-14T08:28:51.264Z,6.18
2023-10-14T08:31:19.462Z,5.50
2023-10-14T08:33:49.291Z,6.57
2023-10-14T08:36:17.986Z,5.80
2023-10-14T08:38:48.826Z,6.78
2023-10-14T08:41:17.447Z,5.97
2023-10-14T08:43:51.866Z,6.65
2023-10-14T08:46:25.423Z,5.82
2023-10-14T08:48:54.224Z,5.43
2023-10-14T08:51:36.319Z,6.45
2023-10-14T08:54:16.196Z,6.53
2023-10-14T08:56:46.213Z,6.10
2023-10-14T08:59:14.279Z,6.45
2023-10-14T09:01:44.055Z,5.57
2023-10-14T09:04:16.661Z,5.90
2023-10-14T09:06:44.949Z,6.55
2023-10-14T09:09:18.879Z,6.07
2023-10-14T09:11:47.198Z,6.32
2023-10-14T09:14:18.310Z,6.62
2023-10-14T09:16:55.082Z,5.28
2023-10-14T09:19:25.165Z,6.28
2023-10-14T09:21:58.758Z,6.12
2023-10-14T09:24:27.585Z,5.37
2023-10-14T09:26:55.982Z,6.37
2023-10-14T09:29:24.428Z,6.15
2023-10-14T09:31:53.042Z,5.47
2023-10-14T09:34:24.842Z,6.07
2023-10-14T09:36:56.893Z,6.18
2023-10-14T09:39:29.773Z,5.90
2023-10-14T09:42:00.347Z,5.70
2023-10-14T09:44:30.527Z,6.45
2023-10-14T09:47:00.691Z,6.18
2023-10-14T09:49:29.721Z,5.85
2023-10-14T09:52:03.273Z,5.65
2023-10-14T09:54:34.489Z,5.53
2023-10-14T09:57:02.760Z,5.72
2023-10-14T09:59:31.936Z,4.97
2023-10-14T10:02:01.639Z,5.30
2023-10-14T10:04:35.304Z,6.07
2023-10-14T10:07:19.630Z,5.07
2023-10-14T10:10:15.134Z,5.15
2023-10-14T10:12:53.469Z,5.45
2023-10-14T10:15:22.666Z,6.22
2023-10-14T10:18:06.103Z,5.12
2023-10-14T10:20:38.158Z,5.40
2023-10-14T10:23:08.277Z,5.20
2023-10-14T10:25:37.588Z,6.10
2023-10-14T10:28:36.276Z,6.03
2023-10-14T10:31:11.421Z,5.72
2023-10-14T10:33:54.987Z,5.32
2023-10-14T10:36:29.382Z,5.43
2023-10-14T10:39:18.805Z,5.75
2023-10-14T10:41:52.047Z,5.10
2023-10-14T10:44:20.913Z,5.45
2023-10-14T10:46:55.487Z,5.45
2023-10-14T10:49:49.898Z,5.75
2023-10-14T10:52:18.312Z,5.43
2023-10-14T10:54:48.151Z,5.78
2023-10-14T10:57:16.801Z,5.37
2023-10-14T10:59:45.291Z,5.40
2023-10-14T11:02:15.249Z,5.25
2023-10-14T11:04:46.788Z,5.75
2023-10-14T11:07:15.862Z,4.72
2023-10-14T11:09:45.004Z,5.43
2023-10-14T11:12:15.305Z,5.50
2023-10-14T11:14:43.742Z,4.85
2023-10-14T11:17:11.830Z,5.10
2023-10-14T11:19:40.265Z,5.30
2023-10-14T11:22:09.210Z,5.32
2023-10-14T11:24:37.526Z,5.35
2023-10-14T11:27:08.341Z,5.05
2023-10-14T11:29:37.363Z,5.18
2023-10-14T11:32:06.451Z,5.10
2023-10-14T11:34:36.402Z,4.97
2023-10-14T11:37:08.104Z,5.15
2023-10-14T11:39:37.848Z,4.25
2023-10-14T11:42:06.460Z,4.78
2023-10-14T11:44:37.316Z,4.47
2023-10-14T11:47:09.339Z,4.45
2023-10-14T11:49:38.462Z,4.47
2023-10-14T11:52:07.395Z,4.37
2023-10-14T11:54:39.348Z,4.32
2023-10-14T11:57:09.009Z,4.20
2023-10-14T11:59:39.688Z,4.87
2023-10-14T12:02:08.245Z,4.53
2023-10-14T12:04:37.521Z,4.55
2023-10-14T12:07:07.056Z,4.55
2023-10-14T12:09:35.397Z,5.15
2023-10-14T12:12:04.685Z,4.28
2023-10-14T12:14:33.090Z,5.32
2023-10-14T12:17:06.436Z,4.75
2023-10-14T12:19:35.564Z,4.32
2023-10-14T12:22:03.801Z,4.37
2023-10-14T12:24:33.678Z,3.72
2023-10-14T12:27:02.543Z,3.97
2023-10-14T12:29:34.597Z,3.92
2023-10-14T12:32:17.774Z,4.07
2023-10-14T12:34:49.583Z,4.00
2023-10-14T12:37:22.507Z,4.62
2023-10-14T12:39:54.810Z,4.00
2023-10-14T12:42:26.729Z,3.87
2023-10-14T12:44:55.058Z,3.95
2023-10-14T12:47:25.650Z,3.97
2023-10-14T12:49:55.601Z,4.10
2023-10-14T12:52:24.867Z,3.70
2023-10-14T12:54:53.547Z,4.05
2023-10-14T12:57:22.789Z,4.03
2023-10-14T12:59:52.202Z,3.78
2023-10-14T13:02:22.254Z,3.50
2023-10-14T13:04:50.503Z,4.12
2023-10-14T13:07:19.064Z,3.60
2023-10-14T13:09:49.795Z,4.05
2023-10-14T13:12:18.715Z,3.28
2023-10-14T13:14:49.901Z,3.90
2023-10-14T13:17:20.190Z,4.28
2023-10-14T13:19:49.152Z,3.53
2023-10-14T13:22:18.995Z,4.18
2023-10-14T13:24:51.380Z,4.25
2023-10-14T13:27:21.145Z,3.90
2023-10-14T13:29:53.626Z,4.18
2023-10-14T13:32:25.970Z,4.62
2023-10-14T13:34:55.125Z,4.53
2023-10-14T13:37:23.703Z,3.58
2023-10-14T13:39:51.895Z,3.92
2023-10-14T13:42:20.058Z,3.42
2023-10-14T13:44:48.911Z,3.75
2023-10-14T13:47:18.889Z,4.30
2023-10-14T13:49:47.633Z,3.65
2023-10-14T13:52:19.252Z,3.10
2023-10-14T13:54:47.468Z,3.37
2023-10-14T13:57:19.401Z,3.55
2023-10-14T13:59:50.287Z,3.83
2023-10-14T14:02:20.856Z,3.45
2023-10-14T14:04:52.526Z,3.87
2023-10-14T14:07:23.972Z,3.40
2023-10-14T14:09:54.811Z,3.80
2023-10-14T14:12:24.630Z,3.35
2023-10-14T14:14:54.206Z,4.40
2023-10-14T14:17:26.663Z,3.40
2023-10-14T14:19:58.095Z,3.47
2023-10-14T14:22:27.547Z,3.35
2023-10-14T14:24:56.719Z,3.37
2023-10-14T14:27:24.820Z,2.95
2023-10-14T14:29:56.669Z,2.70
2023-10-14T14:32:25.224Z,3.15
2023-10-14T14:34:53.410Z,3.47
2023-10-14T14:37:21.761Z,3.53
2023-10-14T14:39:50.215Z,3.60
2023-10-14T14:42:22.672Z,3.42
2023-10-14T14:44:51.448Z,3.40
2023-10-14T14:47:19.798Z,3.08
2023-10-14T14:49:49.857Z,2.95
2023-10-14T14:52:20.677Z,3.50
2023-10-14T14:54:49.298Z,3.20
2023-10-14T14:57:19.570Z,3.10
2023-10-14T14:59:47.986Z,3.22
2023-10-14T15:02:17.368Z,2.85
2023-10-14T15:04:48.461Z,2.87
2023-10-14T15:07:16.771Z,3.00
2023-10-14T15:09:44.907Z,3.10
2023-10-14T15:12:13.428Z,4.25
2023-10-14T15:14:41.756Z,3.50
2023-10-14T15:17:10.243Z,3.65
2023-10-14T15:19:39.029Z,3.35
2023-10-14T15:22:07.582Z,3.20
2023-10-14T15:24:36.085Z,3.58
2023-10-14T15:27:04.562Z,4.30
2023-10-14T15:29:32.970Z,4.28
2023-10-14T15:32:01.156Z,4.95
2023-10-14T15:34:29.855Z,5.07
2023-10-14T15:36:58.781Z,5.07
2023-10-14T15:39:33.453Z,4.95
2023-10-14T15:42:02.459Z,4.45
2023-10-14T15:44:31.055Z,4.62
2023-10-14T15:47:01.110Z,4.80
2023-10-14T15:49:38.034Z,5.25
2023-10-14T15:52:07.037Z,4.35
2023-10-14T15:54:35.790Z,4.85
2023-10-14T15:57:05.961Z,3.80
2023-10-14T15:59:34.124Z,3.22
2023-10-14T16:02:03.090Z,3.97
2023-10-14T16:04:32.938Z,4.12
2023-10-14T16:07:01.329Z,3.90
2023-10-14T16:09:30.197Z,3.53
2023-10-14T16:11:58.637Z,3.92
2023-10-14T16:14:27.014Z,4.00
2023-10-14T16:16:55.204Z,4.37
2023-10-14T16:19:25.033Z,4.30
2023-10-14T16:21:57.273Z,4.65
2023-10-14T16:24:25.995Z,3.62
2023-10-14T16:26:54.114Z,3.85
2023-10-14T16:29:25.463Z,3.95
2023-10-14T16:31:55.689Z,3.62
2023-10-14T16:34:29.371Z,4.37
2023-10-14T16:36:58.187Z,5.78
2023-10-14T16:39:27.497Z,4.15
2023-10-14T16:41:56.146Z,4.47
2023-10-14T16:44:24.694Z,4.28
2023-10-14T16:46:53.136Z,4.03
2023-10-14T16:49:21.572Z,4.07
2023-10-14T16:51:50.390Z,4.00
2023-10-14T16:54:18.675Z,3.95
2023-10-14T16:56:47.059Z,3.92
2023-10-14T16:59:15.425Z,3.60
2023-10-14T17:01:44.056Z,3.50
2023-10-14T17:04:12.458Z,3.45
2023-10-14T17:06:41.598Z,3.67
2023-10-14T17:09:12.018Z,3.70
2023-10-14T17:11:40.895Z,3.50
2023-10-14T17:14:09.130Z,3.42
2023-10-14T17:16:39.442Z,3.97
2023-10-14T17:19:08.290Z,3.20
2023-10-14T17:21:37.108Z,3.90
2023-10-14T17:24:05.636Z,3.37
2023-10-14T17:26:34.201Z,3.78
2023-10-14T17:29:02.677Z,3.65
2023-10-14T17:31:30.978Z,3.62
2023-10-14T17:34:00.174Z,3.80
2023-10-14T17:36:29.157Z,3.67
2023-10-14T17:38:57.682Z,3.30
2023-10-14T17:41:26.409Z,4.10
2023-10-14T17:43:56.026Z,4.15
2023-10-14T17:46:25.575Z,4.03
2023-10-14T17:48:55.378Z,3.80
2023-10-14T17:51:23.752Z,4.12
2023-10-14T17:53:53.991Z,3.42
2023-10-14T17:56:26.176Z,3.30
2023-10-14T17:58:54.396Z,2.83
2023-10-14T18:01:26.985Z,3.10
2023-10-14T18:03:57.398Z,3.20
2023-10-14T18:06:25.986Z,3.03
2023-10-14T18:08:54.940Z,2.80
2023-10-14T18:11:23.890Z,3.15
2023-10-14T18:13:51.995Z,2.90
2023-10-14T18:16:22.894Z,3.05
2023-10-14T18:18:51.813Z,3.30
2023-10-14T18:21:20.085Z,3.10
2023-10-14T18:23:49.185Z,3.33
2023-10-14T18:26:20.526Z,3.47
2023-10-14T18:28:49.652Z,3.40
2023-10-14T18:31:19.052Z,3.70
2023-10-14T18:33:48.383Z,5.28
2023-10-14T18:36:16.786Z,6.20
2023-10-14T18:38:48.064Z,6.18
2023-10-14T18:41:19.931Z,6.62
2023-10-14T18:43:48.366Z,6.25
2023-10-14T18:46:19.652Z,6.00
2023-10-14T18:48:48.655Z,4.70
2023-10-14T18:51:18.826Z,4.97
2023-10-14T18:53:47.147Z,4.55
2023-10-14T18:56:22.764Z,4.82
2023-10-14T18:58:58.880Z,4.28
2023-10-14T19:01:28.443Z,4.80
2023-10-14T19:04:00.760Z,3.58
2023-10-14T19:06:30.209Z,3.72
2023-10-14T19:09:01.017Z,3.97
2023-10-14T19:11:31.721Z,3.80
2023-10-14T19:14:02.469Z,3.70
2023-10-14T19:16:32.186Z,3.42
2023-10-14T19:19:00.916Z,3.70
2023-10-14T19:21:29.383Z,3.05
2023-10-14T19:23:59.050Z,2.97
2023-10-14T19:26:28.893Z,3.05
2023-10-14T19:28:57.939Z,3.62
2023-10-14T19:31:26.545Z,3.47
2023-10-14T19:33:54.959Z,4.10
2023-10-14T19:36:24.172Z,4.20
2023-10-14T19:38:52.201Z,4.28
2023-10-14T19:41:20.505Z,4.55
2023-10-14T19:43:50.233Z,4.68
2023-10-14T19:48:51.891Z,5.57
2023-10-14T19:51:20.565Z,6.60
2023-10-14T19:53:48.959Z,6.53
2023-10-14T19:56:17.778Z,7.80
2023-10-14T19:58:46.480Z,7.90
2023-10-14T20:01:18.275Z,5.68
2023-10-14T20:03:47.509Z,5.20
2023-10-14T20:06:20.777Z,4.80
2023-10-14T20:08:50.107Z,4.32
2023-10-14T20:11:18.648Z,3.37
2023-10-14T20:13:47.633Z,3.70
2023-10-14T20:16:17.988Z,3.90
2023-10-14T20:18:47.599Z,3.58
2023-10-14T20:21:16.785Z,3.58
2023-10-14T20:23:45.452Z,3.12
2023-10-14T20:26:14.105Z,3.10
2023-10-14T20:28:45.701Z,3.50
2023-10-14T20:31:23.393Z,3.90
2023-10-14T20:33:53.149Z,3.62
2023-10-14T20:36:25.087Z,2.92
2023-10-14T20:38:54.252Z,3.47
2023-10-14T20:41:22.862Z,3.22
2023-10-14T20:43:53.847Z,3.15
2023-10-14T20:46:22.793Z,3.40
2023-10-14T20:48:51.141Z,3.87
2023-10-14T20:51:20.388Z,3.65
2023-10-14T20:53:50.199Z,3.78
2023-10-14T20:56:21.183Z,3.05
2023-10-14T20:58:50.518Z,3.67
2023-10-14T21:01:18.987Z,3.40
2023-10-14T21:03:49.549Z,3.97
2023-10-14T21:06:18.411Z,3.60
2023-10-14T21:08:48.915Z,3.72
2023-10-14T21:11:23.203Z,3.20
2023-10-14T21:13:55.777Z,2.83
2023-10-14T21:16:25.653Z,3.70
2023-10-14T21:18:55.170Z,3.33
2023-10-14T21:21:25.082Z,3.42
2023-10-14T21:23:53.654Z,3.28
2023-10-14T21:26:21.752Z,3.10
2023-10-14T21:28:50.239Z,2.67
2023-10-14T21:31:19.005Z,2.75
2023-10-14T21:33:47.171Z,2.80
2023-10-14T21:36:16.509Z,2.40
2023-10-14T21:38:48.563Z,2.10
2023-10-14T21:41:19.890Z,1.90
2023-10-14T21:43:50.139Z,2.40
2023-10-14T21:46:20.267Z,2.03
2023-10-14T21:48:49.656Z,1.92
2023-10-14T21:51:17.809Z,2.30
2023-10-14T21:53:46.361Z,2.08
2023-10-14T21:56:15.124Z,4.00
2023-10-14T21:58:43.725Z,3.75
2023-10-14T22:01:33.140Z,4.60
2023-10-14T22:04:05.426Z,3.90
2023-10-14T22:06:33.714Z,2.85
2023-10-14T22:09:03.616Z,2.47
2023-10-14T22:11:32.079Z,2.40
2023-10-14T22:14:01.583Z,2.00
2023-10-14T22:16:30.156Z,1.48
2023-10-14T22:18:58.484Z,1.50
2023-10-14T22:21:26.594Z,1.80
2023-10-14T22:23:55.008Z,2.17
2023-10-14T22:26:23.285Z,1.60
2023-10-14T22:28:51.338Z,1.95
2023-10-14T22:31:19.860Z,1.58
2023-10-14T22:33:48.295Z,1.40
2023-10-14T22:36:16.618Z,1.70
2023-10-14T22:38:45.315Z,1.30
2023-10-14T22:41:14.560Z,1.75
2023-10-14T22:43:42.655Z,1.80
2023-10-14T22:46:14.340Z,1.73
2023-10-14T22:48:44.305Z,1.60
2023-10-14T22:51:13.028Z,1.40
2023-10-14T22:53:41.191Z,1.50
2023-10-14T22:56:09.433Z,1.25
2023-10-14T22:58:41.032Z,1.60
2023-10-14T23:01:11.981Z,1.48
2023-10-14T23:03:42.627Z,2.00
2023-10-14T23:06:11.591Z,1.30
2023-10-14T23:08:39.916Z,1.55
2023-10-14T23:11:08.561Z,1.50
2023-10-14T23:13:36.831Z,1.50
2023-10-14T23:16:05.216Z,1.80
2023-10-14T23:18:34.860Z,1.52
2023-10-14T23:21:03.365Z,1.50
2023-10-14T23:23:31.505Z,2.03
2023-10-14T23:26:00.850Z,1.62
2023-10-14T23:28:28.908Z,1.62
2023-10-14T23:30:57.334Z,1.65
2023-10-14T23:33:25.794Z,1.30
2023-10-14T23:35:54.592Z,1.75
2023-10-14T23:38:22.804Z,1.30
2023-10-14T23:40:51.179Z,1.55
2023-10-14T23:43:19.350Z,1.20
2023-10-14T23:45:47.599Z,1.20
2023-10-14T23:48:16.193Z,1.00
2023-10-14T23:50:44.298Z,1.30
2023-10-14T23:53:12.644Z,0.90
2023-10-14T23:55:44.667Z,0.88
2023-10-14T23:58:13.006Z,0.68
